Printer image icon. Send To Printer
           

                RAOB DATA MANUAL QUALITY CONTROL (QC) REPORT
                                  MEXICAN
                       From 20150401 through 20150430

 ___DATE___ HOUR REASN DETAILS...

76225/CUU
   20150406  12Z DELET Purged hgts/temps 256mb and up...high/warm
   20150430  12Z 10156 10156; Weak signal.

2 records found

76256/GYM
   20150412  12Z 10158 10158.
   20150416  12Z 10158 10158
   20150417  12Z 10158 10158
   20150421  12Z 10158 10158; flight equip problem.
   20150424  12Z 10158 10158...Flight equipment failure
   20150425  12Z 10158 10158...Flight equipment failure
   20150428  12Z 10158 10158.
   20150429  12Z 10158 10158...flight equipment failure

8 records found

76458/MZT
   20150401  00Z 10158 10158
   20150402  00Z 10158 10158
   20150403  00Z 10158 10158
   20150404  00Z 10158 10158
   20150405  00Z 10158 10158; Flight equip problems..
   20150406  00Z 10158 10158; Flight equip problems..
   20150406  12Z 10142 10142
   20150407  00Z 10158 10158...Flight equipment failure
   20150407  12Z 10142 10142
   20150408  00Z 10158 10158...Flight equipment failure
   20150409  00Z 10158 10158...flight equipment failure
   20150410  00Z 10158 10158
   20150411  00Z 10158 10158
   20150412  00Z 10158 10158
   20150413  00Z 10142 Flight equipment failure...10142
   20150414  00Z 10158 10158; Flight equip problems..
   20150415  00Z 10158 10158; Flight equip problems.
   20150416  00Z 10158 10158; Flight equip problems.
   20150417  00Z 10158 10158...Flight equipment failure
   20150418  00Z 10158 10158...Flight equipment failure
   20150419  00Z 10158 10158.
   20150420  00Z 10158 10158.
   20150421  00Z 10158 10158...Flight equipment failure
   20150422  00Z 10158 Flight equipment failure...10158
   20150423  00Z 10158 Flight equipment failure...10158
   20150424  00Z 10158 10158...Flight equipment failure
   20150425  00Z 10158 10158; Flight equip problem
   20150426  00Z 10158 10158
   20150427  00Z 10158 10158
   20150428  00Z 10158 10158...flight equipment failure
   20150429  00Z 10158 10158
   20150430  00Z 10158 10158...Flight equipment failure

32 records found

76526/ZAC
   20150405  12Z DELET Purged all temps/rh...too warm
   20150406  12Z DELET Purged all hgts/temps
   20150407  12Z DELET Purged full report
   20150408  12Z DELET Purged report
   20150413  12Z DELET Purged all hgts/temps...baseline error
                 BASEL
   20150414  12Z DELET Purged all hgts/temps...baseline error
                 BASEL
   20150416  12Z DELET Purged all hgts/temps
   20150417  12Z DELET Purged all hgts and temps
   20150418  12Z DELET Purged all hgts/temps
   20150419  12Z DELET Purged all hgts/temps
   20150420  12Z DELET Purge hts/temps/humidity 100mb up very low and 
                       Erratic temp.
   20150422  12Z DELET Purge hts/temps/humidity 1000mb up low/warm
   20150423  12Z DELET Purge hts/temps/humidity 1000mb up Low/Warm then 
                       cold.
   20150424  12Z DELET Purged all hgts/temps...baseline error
                 BASEL
   20150425  12Z DELET Purged all hgts/temps...baseline error
                 BASEL
   20150430  12Z DELET Purge hts/temps/humidity 1000mb up High/warm then 
                       erratic temps.

16 records found

76595/CUN
   20150417  12Z 10142 10142

1 record found

76612/GDL
   20150415  12Z 10156 10156...Weak signal
   20150421  12Z 10142 10142; ground equip problem.

2 records found

76644/MID
   20150419  12Z DELET Purged all hgts/temps...portions high/warm
   20150430  12Z DELET Purge hts/temps/humidity 1000mb up High/warm then 
                       erratic temps.

2 records found

76654/MZL
   20150401  00Z 10158 10158
   20150402  00Z 10158 10158
   20150403  00Z 10158 10158
   20150404  00Z 10158 10158
   20150405  00Z 10158 10158; Flight equip problems..
   20150406  00Z 10158 10158; Flight equip problems..
   20150407  00Z 10158 10158...Flight equipment failure
   20150410  00Z 10158 10158
   20150412  00Z 10158 10158
   20150414  00Z 10158 10158; Flight equip problems..
   20150415  00Z 10158 10158; Flight equip problems.
   20150417  00Z 10158 10158...Flight equipment failure
   20150418  00Z 10158 10158...Flight equipment failure
   20150418  12Z DELET Purged all hgts/temps...high/warm
   20150419  00Z 10158 10158.
   20150419  12Z 10142 10142
   20150420  00Z 10158 10158.
   20150421  00Z 10158 10158...Flight equipment failure
   20150422  00Z 10158 Flight equipment failure...10158
   20150423  00Z 10158 Flight equipment failure...10158
   20150423  12Z DELET Purge hts/temps/humidity 925mb up High/Warm.
   20150424  00Z 10158 10158...Flight equipment failure
   20150426  00Z 10158 10158
   20150427  00Z 10158 10158
   20150428  00Z 10158 10158...flight equipment failure
   20150429  00Z 10158 10158
   20150430  12Z DELET Purge temps/humidity 1009 to 850 and 540 to 535mb
                       ..wet bulb effect.

27 records found

76679/MEX
   20150411  00Z DELET Purged all hgts/temps...portions high/warm
   20150412  00Z DELET Purged all temps/hgts...too warm
   20150414  00Z DELET Purge temps humidity 773 to 412mb; erratic temps.
   20150419  12Z DELET Purged all hgts/temps...portions high/warm
   20150422  00Z DELET Deleted erratic winds 771-514 mb
   20150427  00Z DELET Purged all hgts/temps...high/warm

6 records found

76692/HYY
   20150413  12Z DELET Purged temps/moisture 401-399 mb...
                       non-meteorological lapse rate
   20150416  00Z 10142 10142; Ground equip problems.
   20150417  00Z DELET Purged all hgts/temps...high/warm
   20150421  00Z DELET Purged all hgts/temps...portions high/warm

4 records found

76805/ACA
   20150405  12Z SHORT Short to 403 mb
   20150406  12Z 10158 10158
   20150407  12Z 10158 10158
   20150408  12Z 10158 10158
   20150417  12Z 10158 10158
   20150418  12Z 10158 10158
   20150419  12Z 10158 10158
   20150420  12Z 10158 10158; flight equip problem..
   20150421  12Z 10158 10158; flight equip problem.
   20150422  12Z 10158 10158; Flight equip problems.
   20150423  12Z 10158 10158; Flight equip problem.

11 records found



SELECTED STATIONS WITH NO SDM QC:
  76394/MTY  76405/LAP  76743/VHA  76903/TAP



This and related reports are available on the Web at . . .
http://www.nco.ncep.noaa.gov/sib/qap/raobqc/